Burlington, Connecticut
Current Conditions -  °F | °C
As of 9:53 PM on Wednesday 26 Nov 2014 (Local Time) from KHFD Reporting Station
Light Snow Light Snow  
Wind Chill: 24°   Ceiling: 800
Heat Index: 34°   Visibility: 2.5mi
Dew Point: 31°   Wind: 15mph
Humidity: 89%   Direction: 360°N
Pressure: 29.75"   Gusts: 25mph
Location:  41.76°N, 72.96°W
Report Text: KHFD 270253Z 36013G22KT 2 1/2SM -SN BR BKN008 OVC014 01/M01 A2975 RMK AO2 RAE0155SNB0155 SLP073 P0002 60009 T00111006 55009
Loading
Personal Weather Stations






























Interactive Weather Map New forecast layout! Learn more

10-Day Weather Forecast

Advertisements
Track Severe Weather on mobile